Contact Us:
Email: info@sawbill.com
Phone: (218)663-7150
Fax: (218)663-7980
Mail: 4620 Sawbill Trail
Box 2129
Tofte, MN 55615


Powered by
Movable Type 3.15
 
Sawbill Weather History Archives: August 2010
Current Sawbill Weather History | « July 2010 | September 2010 »


Date

High
Temperature

Low
Temperature

Barometric
Pressure

Relative
Humidity 7AM

9 AM
Temperature

Moisture

Snow

8/31/10 78 57 30.42 74% 57 0
8/30/10 82 69 30.27 95% 69 .01"
8/29/10 77 57 30.47 89% 63 .02"
8/28/10 81 57 30.18 69% 57 0
8/27/10 75 56 30.36 61% 64 0
8/26/10 69 43 30.45 95% 56 0
8/25/10 65 43 30.62 74% 43 0
8/24/10 68 53 30.47 71% 53 0
8/23/10 79 62 30.42 91% 62 .07"
8/22/10 75 56 30.56 98% 63 0
8/21/10 74 56 30.62 90% 57 0
8/20/10 64 56 30.36 98% 58 1.6"
8/19/10 68 46 30.36 98% 56 1.37"
8/18/10 65 46 30.42 75% 46 .03"
8/17/10 66 52 30.36 82% 56 .07"
8/16/10 62 49 30.42 61% 52 0
8/15/10 64 51 30.24 91% 51 .13"
8/14/10 78 57 30.15 84% 58 Trace
8/13/10 73 62 30.24 91% .02" Trace
8/12/10 79 61 30.30 90% 67 Trace
8/11/10 73 61 30.36 91% 61 .68"
8/10/10 84 62 30.53 90% 68 Trace
8/9/10 83 62 30.49 79% 62 0
8/8/10 78 59 30.36 93% 62 0
8/7/10 75 46 30.24 81% 59 0
8/6/10 72 42 30.06 98% 45 0
8/5/10 69 48 30.36 73% 48 Trace
8/4/10 76 59 30.21 86% 59 .09"
8/3/10 81 65 30.30 86% 65 0
8/2/10 76 61 30.33 96% 65 0
8/1/10 81 59 30.30 94% 61 .24"
 


Home I Trip Planning I Rentals and Outfitting I Reservations I Campgrounds I Sawbill Store I Sawbill News I Contact

© 1997 - 2017, Sawbill Canoe Outfitters, Inc. I Privacy Policy